Time;durP1;ratioP1;P1;durP2;ratioP2;P2;SDS_P1;SDS_P2;PMS_P1;PMS_P2;Temp;Humidity;BMP_temperature;BMP_pressure;BME280_temperature;BME280_humidity;BME280_pressure;Samples;Min_cycle;Max_cycle;Signal;HPM_P1;HPM_P2
2021/06/18 04:41:34;;;;;;;21.07;19.60;;;23.40;99.90;;;;;;5702781;23;20508;-73
2021/06/18 04:44:01;;;;;;;21.57;20.30;;;23.50;99.90;;;;;;4950045;28;20510;-73
2021/06/18 04:46:28;;;;;;;20.40;18.70;;;23.70;99.90;;;;;;4943121;29;20540;-72
2021/06/18 04:48:54;;;;;;;21.53;20.03;;;23.80;99.90;;;;;;4934896;29;20812;-72
2021/06/18 04:51:21;;;;;;;20.50;19.30;;;24.00;99.90;;;;;;4934485;29;20465;-73
2021/06/18 04:53:52;;;;;;;20.47;19.27;;;24.40;99.90;;;;;;4934373;29;20462;-73
2021/06/18 04:56:19;;;;;;;22.03;20.30;;;24.60;99.90;;;;;;4934378;29;20437;-73
2021/06/18 04:58:47;;;;;;;21.47;20.00;;;24.70;99.90;;;;;;4934842;29;20457;-72
2021/06/18 05:01:14;;;;;;;22.83;20.97;;;25.00;99.90;;;;;;4934783;29;20458;-73
2021/06/18 05:03:41;;;;;;;22.77;20.97;;;25.00;99.90;;;;;;4933832;29;20453;-73
2021/06/18 05:06:07;;;;;;;21.10;19.77;;;25.00;99.90;;;;;;4934187;29;20996;-72
2021/06/18 05:08:34;;;;;;;22.50;20.90;;;25.00;99.90;;;;;;4934247;29;20453;-72
2021/06/18 05:11:01;;;;;;;21.17;19.80;;;25.20;99.90;;;;;;4934135;29;20851;-72
2021/06/18 05:13:27;;;;;;;21.13;20.00;;;24.80;99.90;;;;;;4934370;29;20470;-72
2021/06/18 05:15:55;;;;;;;19.80;18.37;;;24.70;99.90;;;;;;4934147;29;20464;-73
2021/06/18 05:18:22;;;;;;;20.87;19.67;;;24.80;99.90;;;;;;4934336;29;20460;-70
2021/06/18 05:20:49;;;;;;;20.57;18.87;;;25.00;99.90;;;;;;4934020;29;20955;-70
2021/06/18 05:23:15;;;;;;;19.90;18.50;;;25.30;99.90;;;;;;4934133;29;21114;-69
2021/06/18 05:25:42;;;;;;;20.03;18.70;;;25.70;99.90;;;;;;4933951;29;20888;-70
2021/06/18 05:28:09;;;;;;;19.77;17.97;;;26.20;99.90;;;;;;4934127;29;20485;-70
2021/06/18 05:30:35;;;;;;;19.53;18.13;;;26.50;99.30;;;;;;4933956;29;20460;-70
2021/06/18 05:33:03;;;;;;;18.87;17.63;;;26.90;98.40;;;;;;4933818;29;20457;-70
2021/06/18 05:35:30;;;;;;;19.87;18.17;;;27.10;97.80;;;;;;4934235;29;20468;-70
2021/06/18 05:37:57;;;;;;;21.80;20.20;;;27.50;97.40;;;;;;4933794;29;20525;-71
2021/06/18 05:40:24;;;;;;;19.37;18.37;;;27.80;96.40;;;;;;4942005;29;20484;-69
2021/06/18 05:42:50;;;;;;;19.07;17.77;;;27.90;96.10;;;;;;4952631;29;20905;-70
2021/06/18 05:45:17;;;;;;;20.73;19.20;;;28.00;95.90;;;;;;4952634;29;20747;-71
2021/06/18 05:47:44;;;;;;;20.57;19.37;;;28.00;95.90;;;;;;4952937;29;20491;-70
2021/06/18 05:50:13;;;;;;;20.37;19.03;;;27.80;96.10;;;;;;4953226;29;20460;-69
2021/06/18 05:52:39;;;;;;;20.07;18.77;;;27.70;96.40;;;;;;4952609;29;20453;-70
2021/06/18 05:55:08;;;;;;;19.83;18.30;;;27.90;95.70;;;;;;4952470;29;20813;-70
2021/06/18 05:57:35;;;;;;;20.30;19.00;;;27.80;95.60;;;;;;4952502;29;20452;-70
2021/06/18 06:00:02;;;;;;;19.63;18.00;;;27.60;96.30;;;;;;4952673;29;20456;-70
2021/06/18 06:02:29;;;;;;;23.43;19.20;;;27.50;96.50;;;;;;4952755;29;20452;-70
2021/06/18 06:04:56;;;;;;;42.57;20.90;;;27.50;96.60;;;;;;4952212;29;20448;-71
2021/06/18 06:07:24;;;;;;;21.50;19.20;;;27.80;96.40;;;;;;4952197;29;21072;-71
2021/06/18 06:09:50;;;;;;;18.67;17.57;;;28.00;96.10;;;;;;4952434;29;20930;-71
2021/06/18 06:12:17;;;;;;;19.27;18.00;;;28.20;95.30;;;;;;4952414;29;20776;-71
2021/06/18 06:14:44;;;;;;;18.90;17.40;;;28.40;95.00;;;;;;4952397;28;20519;-70
2021/06/18 06:17:10;;;;;;;19.20;18.10;;;28.40;94.70;;;;;;4952610;29;20437;-75
2021/06/18 06:19:37;;;;;;;19.40;18.10;;;28.50;94.00;;;;;;4952464;29;20463;-73
2021/06/18 06:22:04;;;;;;;19.47;18.10;;;28.20;94.50;;;;;;4952488;29;20815;-73
2021/06/18 06:24:33;;;;;;;18.20;17.30;;;28.20;94.40;;;;;;4952739;29;20453;-73
2021/06/18 06:27:00;;;;;;;18.37;17.30;;;28.60;94.00;;;;;;4952298;29;20492;-73
2021/06/18 06:29:26;;;;;;;19.00;17.90;;;29.00;93.30;;;;;;4952381;29;20807;-76
2021/06/18 06:31:53;;;;;;;18.63;17.50;;;29.30;92.50;;;;;;4957168;28;20482;-73
2021/06/18 06:34:20;;;;;;;18.27;17.27;;;28.70;93.00;;;;;;4963627;28;20448;-73
2021/06/18 06:36:46;;;;;;;19.27;18.30;;;28.80;93.30;;;;;;4957505;28;20782;-73
2021/06/18 06:39:13;;;;;;;18.80;17.80;;;28.90;93.00;;;;;;4952814;29;20457;-73
2021/06/18 06:41:41;;;;;;;19.77;18.43;;;29.20;92.50;;;;;;4970872;28;20498;-73
2021/06/18 06:44:08;;;;;;;20.10;18.80;;;29.60;92.20;;;;;;4971727;28;20503;-72
2021/06/18 06:46:36;;;;;;;19.50;18.30;;;30.00;91.50;;;;;;4971249;28;20459;-73
2021/06/18 06:49:03;;;;;;;17.30;15.97;;;30.20;91.20;;;;;;4961786;28;20513;-73
2021/06/18 06:51:30;;;;;;;18.37;17.47;;;30.00;91.00;;;;;;4952439;29;20455;-73
2021/06/18 06:53:57;;;;;;;19.93;18.83;;;30.10;90.80;;;;;;4952337;29;20453;-73
2021/06/18 06:56:24;;;;;;;19.27;17.97;;;30.30;90.80;;;;;;4951756;29;20951;-71
2021/06/18 06:58:54;;;;;;;18.23;17.23;;;30.60;89.30;;;;;;4952042;29;20448;-73
2021/06/18 07:01:21;;;;;;;18.50;17.50;;;30.20;90.00;;;;;;4952195;29;20463;-73
2021/06/18 07:03:47;;;;;;;17.50;16.50;;;30.50;89.70;;;;;;4951966;29;20985;-73
2021/06/18 07:06:14;;;;;;;19.90;18.63;;;30.90;88.60;;;;;;4962331;28;20475;-73
2021/06/18 07:08:41;;;;;;;17.30;16.43;;;31.30;86.80;;;;;;4971162;28;20494;-71
2021/06/18 07:11:08;;;;;;;19.30;18.03;;;31.60;84.80;;;;;;4971142;28;20700;-73
2021/06/18 07:13:34;;;;;;;18.83;17.57;;;31.50;84.30;;;;;;4971149;28;20456;-73
2021/06/18 07:16:03;;;;;;;17.50;16.60;;;31.30;84.00;;;;;;4971043;28;20960;-73
2021/06/18 07:18:29;;;;;;;17.90;16.90;;;31.50;83.70;;;;;;4971118;28;20444;-73
2021/06/18 07:20:56;;;;;;;16.97;16.17;;;31.70;82.80;;;;;;4970984;28;20459;-74
2021/06/18 07:23:23;;;;;;;18.73;17.77;;;31.50;82.00;;;;;;4971261;28;20980;-73
2021/06/18 07:25:50;;;;;;;18.20;17.00;;;31.50;82.60;;;;;;4971126;28;20462;-73
2021/06/18 07:28:16;;;;;;;18.90;17.80;;;31.60;81.80;;;;;;4974561;28;20491;-73
2021/06/18 07:30:43;;;;;;;17.30;16.40;;;31.30;82.50;;;;;;4974414;28;20820;-73
2021/06/18 07:33:11;;;;;;;18.53;17.63;;;31.40;83.10;;;;;;4974187;28;20477;-73
2021/06/18 07:35:38;;;;;;;18.80;17.67;;;31.70;81.80;;;;;;4973952;28;20459;-73
2021/06/18 07:38:05;;;;;;;19.00;17.90;;;31.90;81.00;;;;;;4974624;28;20817;-73
2021/06/18 07:40:32;;;;;;;18.07;16.93;;;32.00;80.50;;;;;;4962078;28;20535;-72
2021/06/18 07:42:59;;;;;;;17.80;17.00;;;32.20;79.80;;;;;;4954661;29;20476;-71
2021/06/18 07:45:27;;;;;;;19.77;18.37;;;32.60;78.20;;;;;;4956142;28;20471;-71
2021/06/18 07:47:53;;;;;;;20.23;18.90;;;32.60;77.80;;;;;;4974193;28;20868;-73
2021/06/18 07:50:23;;;;;;;18.10;17.10;;;32.70;77.10;;;;;;4974255;28;20482;-73
2021/06/18 07:52:50;;;;;;;19.40;18.37;;;32.70;76.80;;;;;;4972024;28;20452;-73
2021/06/18 07:55:19;;;;;;;20.07;19.07;;;32.60;76.60;;;;;;4973628;28;20440;-72
2021/06/18 07:57:47;;;;;;;18.20;17.13;;;32.90;77.30;;;;;;4974050;28;20455;-73
2021/06/18 08:00:14;;;;;;;18.93;18.03;;;33.20;76.00;;;;;;4974073;28;20455;-73
2021/06/18 08:02:41;;;;;;;19.50;18.40;;;33.30;75.30;;;;;;4973825;28;20459;-73
2021/06/18 08:05:11;;;;;;;20.10;18.87;;;34.00;74.60;;;;;;4973609;28;20458;-73
2021/06/18 08:07:40;;;;;;;21.33;19.83;;;34.50;71.40;;;;;;4973538;28;20716;-73
2021/06/18 08:10:09;;;;;;;19.77;18.70;;;34.20;72.50;;;;;;4973634;28;20458;-72
2021/06/18 08:12:36;;;;;;;19.30;18.07;;;34.00;71.80;;;;;;4973489;28;20452;-72
2021/06/18 08:15:04;;;;;;;20.60;19.60;;;33.80;73.00;;;;;;4973625;28;20462;-72
2021/06/18 08:17:30;;;;;;;20.63;19.43;;;34.20;70.70;;;;;;4973676;28;20957;-72
2021/06/18 08:19:57;;;;;;;21.30;19.83;;;34.30;70.70;;;;;;4973728;28;20467;-72
2021/06/18 08:22:24;;;;;;;20.90;19.70;;;34.20;70.20;;;;;;4973086;28;20859;-73
2021/06/18 08:24:52;;;;;;;20.30;19.27;;;34.50;70.10;;;;;;4973280;28;20463;-70
2021/06/18 08:27:19;;;;;;;20.90;19.50;;;35.50;67.50;;;;;;4973359;28;20498;-71
2021/06/18 08:29:45;;;;;;;20.10;19.20;;;35.90;65.60;;;;;;4973287;28;20452;-71
2021/06/18 08:32:12;;;;;;;20.20;19.30;;;36.60;63.50;;;;;;4973125;28;20456;-71
2021/06/18 08:34:39;;;;;;;22.03;20.63;;;37.00;61.70;;;;;;4973443;28;20478;-71
2021/06/18 08:37:06;;;;;;;20.83;19.80;;;37.30;61.00;;;;;;4973013;28;20444;-71
2021/06/18 08:39:33;;;;;;;20.97;19.77;;;37.80;59.50;;;;;;4972056;28;20459;-71
2021/06/18 08:42:01;;;;;;;21.07;20.07;;;37.80;59.50;;;;;;4973173;28;20490;-72
2021/06/18 08:44:28;;;;;;;22.93;21.93;;;38.00;59.10;;;;;;4973215;28;20448;-72
2021/06/18 08:46:55;;;;;;;23.33;22.10;;;38.70;56.60;;;;;;4973059;28;20972;-71
2021/06/18 08:49:22;;;;;;;21.80;20.70;;;38.20;56.80;;;;;;4972925;28;20655;-71
2021/06/18 08:51:48;;;;;;;21.30;20.17;;;38.30;56.40;;;;;;4972887;28;20451;-72
2021/06/18 08:54:15;;;;;;;21.20;20.27;;;38.60;55.90;;;;;;4973050;28;20455;-72
2021/06/18 08:56:43;;;;;;;22.33;20.83;;;38.60;55.20;;;;;;4973094;28;20448;-72
2021/06/18 08:59:12;;;;;;;22.23;20.90;;;38.10;56.40;;;;;;4972981;28;20451;-72
2021/06/18 09:01:39;;;;;;;23.00;21.40;;;37.80;57.10;;;;;;4972423;28;20467;-71
2021/06/18 09:04:07;;;;;;;21.80;20.60;;;38.40;56.00;;;;;;4972766;28;20451;-72
2021/06/18 09:06:36;;;;;;;22.77;21.30;;;39.20;54.70;;;;;;4972464;28;20965;-72
2021/06/18 09:09:14;;;;;;;22.70;21.17;;;39.30;54.00;;;;;;4972363;28;20579;-72
2021/06/18 09:11:43;;;;;;;23.90;22.13;;;39.90;53.10;;;;;;4972480;28;20470;-72
2021/06/18 09:14:16;;;;;;;23.10;21.90;;;40.70;51.30;;;;;;4972419;28;20463;-72
2021/06/18 09:16:42;;;;;;;23.03;21.63;;;39.00;52.90;;;;;;4972377;28;20933;-72
2021/06/18 09:19:24;;;;;;;22.07;21.07;;;37.90;54.50;;;;;;4972111;28;20875;-71
2021/06/18 09:21:58;;;;;;;21.80;20.80;;;38.50;54.30;;;;;;4972040;28;20507;-71
2021/06/18 09:24:27;;;;;;;22.80;21.73;;;38.70;53.80;;;;;;4972142;28;20455;-72
2021/06/18 09:26:54;;;;;;;22.50;21.20;;;39.10;53.50;;;;;;4972156;28;20515;-72
2021/06/18 09:29:23;;;;;;;24.80;23.20;;;40.10;51.80;;;;;;4971881;28;20495;-72
2021/06/18 09:31:52;;;;;;;24.53;22.87;;;40.50;50.70;;;;;;4972178;28;20949;-72
2021/06/18 09:34:31;;;;;;;24.23;22.37;;;40.60;50.40;;;;;;4972181;28;20462;-72
2021/06/18 09:37:21;;;;;;;23.17;21.90;;;39.80;50.80;;;;;;4972128;28;20519;-72
2021/06/18 09:40:07;;;;;;;23.37;21.97;;;40.80;49.60;;;;;;4971920;28;20478;-71
2021/06/18 09:42:34;;;;;;;22.10;20.97;;;40.20;49.50;;;;;;4971912;28;20487;-72
2021/06/18 09:45:09;;;;;;;23.30;21.73;;;39.70;50.10;;;;;;4972198;28;20459;-72
2021/06/18 09:47:37;;;;;;;21.83;20.73;;;39.90;50.40;;;;;;4971945;28;20500;-72
2021/06/18 09:50:06;;;;;;;21.77;20.77;;;40.30;49.20;;;;;;4971255;28;20457;-72
2021/06/18 09:52:33;;;;;;;22.73;21.53;;;40.80;48.70;;;;;;4971828;28;20460;-71
2021/06/18 09:55:00;;;;;;;22.73;21.63;;;41.10;48.30;;;;;;4972134;28;20562;-72
2021/06/18 09:57:38;;;;;;;22.23;21.23;;;41.50;47.60;;;;;;4971807;28;20462;-71
2021/06/18 10:00:08;;;;;;;22.73;21.70;;;41.50;47.30;;;;;;4971869;28;20570;-71
2021/06/18 10:02:41;;;;;;;23.00;21.80;;;41.50;46.30;;;;;;4971470;28;20454;-72
2021/06/18 10:05:11;;;;;;;22.07;21.17;;;41.90;45.60;;;;;;4971948;28;20494;-72
2021/06/18 10:07:39;;;;;;;22.43;21.10;;;42.50;45.00;;;;;;4971568;28;20466;-72
2021/06/18 10:10:08;;;;;;;22.13;21.03;;;43.00;43.00;;;;;;4971591;28;20819;-72
2021/06/18 10:12:35;;;;;;;23.07;22.03;;;42.90;43.20;;;;;;4971690;28;20803;-72
2021/06/18 10:15:06;;;;;;;22.97;21.73;;;42.50;43.40;;;;;;4971823;28;20454;-72
2021/06/18 10:17:36;;;;;;;21.90;20.60;;;42.50;43.40;;;;;;4971461;28;20459;-72
2021/06/18 10:20:06;;;;;;;21.50;20.60;;;41.10;43.40;;;;;;4971441;28;20486;-72
2021/06/18 10:22:35;;;;;;;21.77;20.77;;;40.50;45.30;;;;;;4971826;28;20455;-72
2021/06/18 10:25:04;;;;;;;24.30;23.00;;;41.30;43.90;;;;;;4971326;28;20450;-73
2021/06/18 10:27:34;;;;;;;22.73;21.53;;;42.10;42.90;;;;;;4971643;28;20550;-73
2021/06/18 10:30:22;;;;;;;22.30;21.10;;;42.70;41.70;;;;;;4971487;28;20443;-72
2021/06/18 10:32:51;;;;;;;24.40;23.33;;;43.40;40.60;;;;;;4971343;28;20450;-72
2021/06/18 10:35:52;;;;;;;21.60;20.37;;;43.10;40.10;;;;;;4971545;28;20455;-73
2021/06/18 10:38:28;;;;;;;22.40;21.00;;;43.50;39.20;;;;;;4971334;28;20446;-72
2021/06/18 10:40:56;;;;;;;22.03;21.13;;;44.10;37.40;;;;;;4971119;28;20482;-73
2021/06/18 10:43:32;;;;;;;24.00;22.37;;;44.20;37.20;;;;;;4971550;28;21197;-72
2021/06/18 10:46:07;;;;;;;22.10;21.13;;;43.80;36.70;;;;;;4971510;28;20469;-72
2021/06/18 10:48:58;;;;;;;22.07;20.87;;;44.10;35.90;;;;;;4971285;28;20478;-72
2021/06/18 10:51:43;;;;;;;22.13;21.13;;;44.00;35.50;;;;;;4971228;28;20941;-72
2021/06/18 10:54:15;;;;;;;22.53;21.63;;;42.90;36.70;;;;;;4970619;28;20451;-72
2021/06/18 10:57:02;;;;;;;22.07;21.07;;;42.50;37.70;;;;;;4971637;28;20459;-72
2021/06/18 10:59:35;;;;;;;22.30;20.87;;;42.90;37.00;;;;;;4971234;28;20454;-72
2021/06/18 11:02:23;;;;;;;20.90;19.70;;;42.50;37.00;;;;;;4973212;28;20510;-72
2021/06/18 11:04:55;;;;;;;20.70;19.77;;;42.80;33.90;;;;;;4974832;28;20828;-72
2021/06/18 11:07:23;;;;;;;20.13;19.23;;;43.30;33.60;;;;;;4974690;28;20459;-71
2021/06/18 11:09:51;;;;;;;21.53;20.73;;;42.70;34.70;;;;;;4974816;28;20490;-72
2021/06/18 11:12:38;;;;;;;20.07;19.00;;;42.20;35.30;;;;;;4974746;28;20518;-73
2021/06/18 11:15:08;;;;;;;19.40;18.50;;;41.10;34.90;;;;;;4974475;28;20462;-72
2021/06/18 11:17:44;;;;;;;21.13;20.10;;;40.50;34.90;;;;;;4974564;28;20941;-72
2021/06/18 11:20:13;;;;;;;20.30;19.33;;;41.00;36.60;;;;;;4974372;28;20489;-73
2021/06/18 11:22:46;;;;;;;20.53;19.57;;;41.90;35.10;;;;;;4974717;28;20555;-73
2021/06/18 11:26:05;;;;;;;19.70;19.00;;;42.90;33.90;;;;;;4974951;28;20541;-72
2021/06/18 11:28:56;;;;;;;19.37;18.67;;;43.00;30.40;;;;;;4895724;29;20486;-72
2021/06/18 11:31:38;;;;;;;20.97;20.13;;;42.80;32.10;;;;;;4886533;29;20584;-72
2021/06/18 11:34:06;;;;;;;20.10;19.20;;;42.40;34.20;;;;;;4951412;28;20453;-72
2021/06/18 11:36:43;;;;;;;20.37;19.50;;;42.20;34.40;;;;;;4972664;28;20458;-72
2021/06/18 11:39:19;;;;;;;19.63;18.73;;;42.10;34.20;;;;;;4974499;28;20447;-72
2021/06/18 11:41:49;;;;;;;19.93;19.03;;;41.50;33.60;;;;;;4974281;28;20483;-72
2021/06/18 11:44:22;;;;;;;19.07;18.20;;;40.50;34.50;;;;;;4974006;28;20451;-71
2021/06/18 11:46:53;;;;;;;18.53;17.73;;;40.00;36.10;;;;;;4974110;28;20460;-72
2021/06/18 11:49:22;;;;;;;16.93;16.23;;;39.30;35.60;;;;;;4974167;28;20578;-71
2021/06/18 11:51:51;;;;;;;17.97;17.30;;;39.30;35.00;;;;;;4974262;28;20860;-71
2021/06/18 11:54:29;;;;;;;17.63;16.83;;;40.00;35.30;;;;;;4973979;28;20459;-71
2021/06/18 11:57:07;;;;;;;17.07;16.17;;;41.10;33.40;;;;;;4974356;28;20447;-72
2021/06/18 11:59:34;;;;;;;18.20;17.30;;;40.30;33.90;;;;;;4973648;28;20843;-71
2021/06/18 12:02:19;;;;;;;17.90;17.10;;;39.50;33.40;;;;;;4973922;28;20459;-71
2021/06/18 12:04:47;;;;;;;20.50;19.60;;;39.40;34.10;;;;;;4973832;28;20456;-71
2021/06/18 12:07:29;;;;;;;18.67;17.97;;;39.30;36.20;;;;;;4973890;28;20464;-71
2021/06/18 12:09:56;;;;;;;19.20;18.33;;;39.60;36.60;;;;;;4973328;28;20586;-72
2021/06/18 12:12:22;;;;;;;19.13;18.33;;;39.50;37.10;;;;;;4973532;28;20474;-71
2021/06/18 12:14:55;;;;;;;18.20;17.17;;;39.00;37.20;;;;;;4973903;28;20534;-71
2021/06/18 12:17:22;;;;;;;19.50;18.70;;;38.50;37.40;;;;;;4973726;28;20452;-71
2021/06/18 12:19:49;;;;;;;18.60;17.90;;;39.10;36.80;;;;;;4973500;28;20459;-71
2021/06/18 12:22:19;;;;;;;18.90;18.10;;;39.90;36.60;;;;;;4973229;28;20456;-71
2021/06/18 12:24:47;;;;;;;19.87;18.73;;;40.40;35.30;;;;;;4973752;28;20459;-71
2021/06/18 12:27:15;;;;;;;18.60;17.70;;;39.00;36.70;;;;;;4973359;28;20945;-72
2021/06/18 12:29:44;;;;;;;17.80;17.10;;;38.70;37.20;;;;;;4973123;28;20494;-71
2021/06/18 12:32:15;;;;;;;18.87;18.17;;;39.80;36.80;;;;;;4973311;28;20502;-72
2021/06/18 12:34:47;;;;;;;18.93;18.13;;;40.60;35.40;;;;;;4973545;28;20444;-71
2021/06/18 12:37:14;;;;;;;20.10;19.10;;;41.10;34.50;;;;;;4973759;28;20979;-71
2021/06/18 12:39:54;;;;;;;18.83;18.03;;;41.10;33.90;;;;;;4973012;28;20470;-71
2021/06/18 12:42:22;;;;;;;19.10;18.23;;;41.20;33.90;;;;;;4972905;28;21183;-72
2021/06/18 12:45:09;;;;;;;19.20;18.40;;;41.50;33.20;;;;;;4972872;28;20448;-71
2021/06/18 12:47:37;;;;;;;19.27;18.47;;;41.60;33.10;;;;;;4973214;28;20455;-72
2021/06/18 12:50:28;;;;;;;19.20;18.40;;;42.00;33.20;;;;;;4972914;28;20517;-72
2021/06/18 12:52:56;;;;;;;18.77;18.07;;;40.40;33.40;;;;;;4972932;28;20922;-72
2021/06/18 12:55:29;;;;;;;19.17;18.47;;;40.20;34.50;;;;;;4972835;28;20732;-72
2021/06/18 12:58:06;;;;;;;19.70;18.53;;;39.70;35.30;;;;;;4973019;28;20444;-72
2021/06/18 13:00:48;;;;;;;19.20;18.07;;;39.50;34.80;;;;;;4973097;28;20455;-72
2021/06/18 13:03:15;;;;;;;19.20;18.37;;;39.80;34.70;;;;;;4973051;28;20459;-72
2021/06/18 13:05:53;;;;;;;19.27;18.37;;;40.10;34.00;;;;;;4972802;28;20455;-72
2021/06/18 13:08:20;;;;;;;18.57;17.77;;;40.40;34.10;;;;;;4972784;28;20467;-72
2021/06/18 13:10:48;;;;;;;19.33;18.43;;;40.90;33.20;;;;;;4972323;28;20494;-72
2021/06/18 13:13:27;;;;;;;18.83;18.07;;;40.20;33.90;;;;;;4972758;28;20444;-72
2021/06/18 13:16:06;;;;;;;17.67;16.97;;;39.80;34.60;;;;;;4972581;28;20447;-72
2021/06/18 13:18:51;;;;;;;19.83;18.33;;;39.10;33.80;;;;;;4972447;28;20522;-71
2021/06/18 13:21:18;;;;;;;19.47;18.53;;;39.20;33.50;;;;;;4972424;28;20447;-71
2021/06/18 13:23:45;;;;;;;17.33;16.50;;;39.00;32.30;;;;;;4972189;28;20455;-71
2021/06/18 13:26:14;;;;;;;17.53;16.83;;;38.50;32.10;;;;;;4972138;28;21016;-72
2021/06/18 13:28:44;;;;;;;17.30;16.30;;;38.90;29.50;;;;;;4972180;28;20981;-71
2021/06/18 13:31:17;;;;;;;17.10;16.40;;;39.80;27.00;;;;;;4971984;28;20459;-72
2021/06/18 13:33:47;;;;;;;17.60;16.40;;;40.70;27.60;;;;;;4972456;28;20474;-72
2021/06/18 13:36:28;;;;;;;18.30;17.37;;;40.60;27.70;;;;;;4972605;28;20451;-71
2021/06/18 13:38:55;;;;;;;17.63;16.17;;;40.30;27.60;;;;;;4972163;28;20448;-71
2021/06/18 13:41:35;;;;;;;17.57;16.67;;;39.90;28.10;;;;;;4971451;28;20495;-71
2021/06/18 13:44:02;;;;;;;18.17;17.27;;;39.90;28.40;;;;;;4971949;28;20481;-71
2021/06/18 13:46:29;;;;;;;18.17;17.13;;;40.00;28.50;;;;;;4972361;28;20451;-71
2021/06/18 13:48:56;;;;;;;19.10;17.93;;;39.00;29.60;;;;;;4972451;28;20495;-71
2021/06/18 13:51:22;;;;;;;18.37;17.13;;;38.30;30.30;;;;;;4971984;28;20456;-71
2021/06/18 13:53:49;;;;;;;17.27;16.47;;;37.90;31.20;;;;;;4971712;28;20511;-71
2021/06/18 13:56:16;;;;;;;18.43;17.37;;;38.40;31.60;;;;;;4972095;28;20826;-71
2021/06/18 13:58:46;;;;;;;17.67;16.57;;;39.20;31.30;;;;;;4972009;28;20458;-72
2021/06/18 14:01:12;;;;;;;17.43;16.63;;;39.80;30.50;;;;;;4971973;28;20484;-72
2021/06/18 14:03:39;;;;;;;18.40;17.50;;;39.60;30.00;;;;;;4971354;28;20458;-71
2021/06/18 14:06:08;;;;;;;18.67;17.53;;;39.10;30.20;;;;;;4971660;28;20460;-71
2021/06/18 14:08:34;;;;;;;17.13;16.43;;;38.90;30.40;;;;;;4971609;28;20466;-72
2021/06/18 14:11:01;;;;;;;18.77;18.17;;;38.70;30.90;;;;;;4972082;28;20496;-71
2021/06/18 14:13:28;;;;;;;19.20;18.20;;;38.70;30.90;;;;;;4972006;28;20459;-71
2021/06/18 14:15:56;;;;;;;18.87;17.33;;;39.00;30.90;;;;;;4971625;28;20451;-71
2021/06/18 14:18:23;;;;;;;18.60;17.70;;;39.00;31.40;;;;;;4971307;28;20455;-71
2021/06/18 14:20:52;;;;;;;18.27;17.47;;;39.00;31.40;;;;;;4971310;28;20463;-72
2021/06/18 14:23:19;;;;;;;17.90;16.70;;;39.00;31.40;;;;;;4971382;28;20455;-72
2021/06/18 14:25:46;;;;;;;17.83;17.20;;;39.10;31.40;;;;;;4971697;28;21016;-72
2021/06/18 14:28:13;;;;;;;19.07;17.87;;;39.20;31.10;;;;;;4971498;28;20459;-72
2021/06/18 14:30:40;;;;;;;18.20;17.50;;;39.30;31.10;;;;;;4971254;28;20495;-71
2021/06/18 14:33:12;;;;;;;18.30;17.40;;;39.50;31.30;;;;;;4971364;28;21133;-72
2021/06/18 14:35:39;;;;;;;18.33;17.43;;;39.00;32.00;;;;;;4972349;28;20458;-72
2021/06/18 14:38:05;;;;;;;19.00;17.97;;;38.80;32.90;;;;;;4975254;28;20462;-72
2021/06/18 14:40:32;;;;;;;17.97;17.07;;;38.60;33.30;;;;;;4975077;28;20475;-72
2021/06/18 14:42:59;;;;;;;17.60;16.70;;;38.20;33.80;;;;;;4973911;28;20487;-72
2021/06/18 14:45:26;;;;;;;17.70;16.90;;;38.30;33.30;;;;;;4973780;28;20546;-72
2021/06/18 14:47:52;;;;;;;18.93;17.93;;;37.90;33.60;;;;;;4973849;28;20451;-72
2021/06/18 14:50:21;;;;;;;18.13;17.33;;;37.60;33.80;;;;;;4973959;28;20502;-72
2021/06/18 14:52:48;;;;;;;17.43;16.67;;;37.80;34.30;;;;;;4974061;28;20625;-72
2021/06/18 14:55:15;;;;;;;17.63;16.73;;;37.60;34.30;;;;;;4974091;28;20459;-72
2021/06/18 14:57:43;;;;;;;18.17;17.37;;;37.40;34.80;;;;;;4973871;28;20463;-71
2021/06/18 15:00:11;;;;;;;18.03;17.13;;;37.60;34.50;;;;;;4973647;28;20460;-71
2021/06/18 15:02:38;;;;;;;17.83;16.80;;;37.80;34.10;;;;;;4973813;28;20463;-71
2021/06/18 15:05:06;;;;;;;17.67;16.87;;;37.70;34.40;;;;;;4972266;28;20459;-72
2021/06/18 15:07:34;;;;;;;17.50;16.60;;;37.80;34.20;;;;;;4973753;28;20451;-72
2021/06/18 15:10:01;;;;;;;18.10;17.17;;;37.70;34.10;;;;;;4973782;28;20491;-72
2021/06/18 15:12:28;;;;;;;17.10;16.20;;;37.50;34.30;;;;;;4973991;28;20459;-72
2021/06/18 15:14:54;;;;;;;17.80;16.93;;;37.40;34.50;;;;;;4973824;28;20455;-72
2021/06/18 15:17:21;;;;;;;17.70;16.80;;;37.50;35.10;;;;;;4973762;28;20447;-72
2021/06/18 15:19:48;;;;;;;17.23;16.33;;;37.00;35.50;;;;;;4973727;28;20965;-72
2021/06/18 15:22:14;;;;;;;16.40;15.33;;;36.50;36.20;;;;;;4974170;28;20456;-72
2021/06/18 15:24:42;;;;;;;17.17;16.30;;;36.10;36.50;;;;;;4973635;28;20965;-72
2021/06/18 15:27:09;;;;;;;17.73;16.93;;;35.80;37.20;;;;;;4973497;28;20456;-72
2021/06/18 15:29:38;;;;;;;17.47;16.47;;;35.50;37.50;;;;;;4973298;28;21013;-72
2021/06/18 15:32:05;;;;;;;17.47;16.37;;;35.30;37.30;;;;;;4973253;28;20463;-72
2021/06/18 15:34:32;;;;;;;17.80;16.50;;;35.10;37.70;;;;;;4973480;28;20444;-71
2021/06/18 15:36:58;;;;;;;17.43;16.43;;;35.10;37.60;;;;;;4973789;28;20456;-71
2021/06/18 15:39:25;;;;;;;16.47;15.77;;;35.00;37.60;;;;;;4973039;28;20443;-72
2021/06/18 15:41:53;;;;;;;16.37;15.50;;;34.80;37.70;;;;;;4962162;28;65514;-72
2021/06/18 15:44:21;;;;;;;16.63;15.83;;;34.80;38.20;;;;;;4965912;28;20447;-71
2021/06/18 15:46:47;;;;;;;17.73;16.60;;;34.80;38.10;;;;;;4973807;28;20444;-71
2021/06/18 15:49:14;;;;;;;17.30;16.13;;;34.70;38.20;;;;;;4974519;28;20456;-72
2021/06/18 15:51:42;;;;;;;15.93;15.07;;;34.80;38.40;;;;;;4974356;28;20502;-72
2021/06/18 15:54:09;;;;;;;17.50;16.20;;;34.80;37.80;;;;;;4973950;28;20462;-72
2021/06/18 15:56:36;;;;;;;17.17;16.20;;;34.90;38.30;;;;;;4974185;28;20456;-72
2021/06/18 15:59:04;;;;;;;16.63;15.60;;;34.90;37.60;;;;;;4974126;28;20462;-72
2021/06/18 16:01:31;;;;;;;16.00;15.00;;;34.90;38.50;;;;;;4973837;28;20463;-71
2021/06/18 16:03:58;;;;;;;17.07;16.07;;;34.80;38.80;;;;;;4974174;28;20452;-71
2021/06/18 16:06:25;;;;;;;15.93;15.10;;;34.80;38.40;;;;;;4974120;28;20452;-71
2021/06/18 16:08:51;;;;;;;16.10;15.20;;;34.60;38.20;;;;;;4974005;28;20567;-72
2021/06/18 16:11:19;;;;;;;16.40;15.40;;;34.60;38.80;;;;;;4973624;28;20492;-72
2021/06/18 16:13:47;;;;;;;16.17;15.43;;;34.40;38.10;;;;;;4973897;28;20458;-71
2021/06/18 16:16:16;;;;;;;16.23;15.33;;;34.40;38.10;;;;;;4973931;28;20456;-71
2021/06/18 16:18:43;;;;;;;17.47;16.30;;;34.30;38.00;;;;;;4973947;28;20813;-72
2021/06/18 16:21:10;;;;;;;16.70;15.87;;;34.20;37.90;;;;;;4973638;28;20451;-72
2021/06/18 16:23:36;;;;;;;16.50;15.27;;;34.20;38.80;;;;;;4973747;28;20540;-72
2021/06/18 16:26:03;;;;;;;16.03;15.20;;;34.40;38.30;;;;;;4972030;28;20459;-72
2021/06/18 16:28:30;;;;;;;17.67;16.67;;;34.40;37.90;;;;;;4973893;28;20456;-72
2021/06/18 16:30:57;;;;;;;17.40;16.50;;;34.30;37.70;;;;;;4973657;28;20530;-72
2021/06/18 16:33:26;;;;;;;16.80;15.80;;;34.20;38.10;;;;;;4973645;28;20451;-73
2021/06/18 16:35:52;;;;;;;17.00;16.03;;;34.30;38.40;;;;;;4973569;28;20447;-72
2021/06/18 16:38:19;;;;;;;16.57;15.77;;;34.20;38.30;;;;;;4973293;28;20942;-72
2021/06/18 16:40:46;;;;;;;15.90;14.87;;;34.30;38.50;;;;;;4973519;28;20464;-72
2021/06/18 16:43:13;;;;;;;15.80;14.93;;;34.20;38.40;;;;;;4971333;28;21067;-72
2021/06/18 16:45:40;;;;;;;15.50;14.80;;;34.20;38.60;;;;;;4973292;28;20474;-72
2021/06/18 16:48:08;;;;;;;16.90;16.13;;;34.20;39.00;;;;;;4973454;28;20459;-71
2021/06/18 16:50:39;;;;;;;17.33;16.10;;;34.20;39.20;;;;;;4973300;28;20858;-72
2021/06/18 16:53:05;;;;;;;15.50;14.63;;;34.10;39.20;;;;;;4973256;28;20531;-72
2021/06/18 16:55:32;;;;;;;17.07;15.50;;;34.10;39.60;;;;;;4973157;28;20463;-72
2021/06/18 16:57:59;;;;;;;17.50;16.40;;;33.90;39.30;;;;;;4973200;28;20459;-72
2021/06/18 17:00:26;;;;;;;17.00;15.60;;;33.80;39.30;;;;;;4971876;28;20973;-71
2021/06/18 17:02:53;;;;;;;16.80;15.60;;;33.70;40.10;;;;;;4973243;28;20854;-71
2021/06/18 17:05:20;;;;;;;16.57;15.73;;;33.60;39.90;;;;;;4973017;28;20466;-72
2021/06/18 17:07:49;;;;;;;15.50;14.67;;;33.50;39.50;;;;;;4973196;28;20474;-70
2021/06/18 17:10:19;;;;;;;17.13;15.70;;;33.40;40.30;;;;;;4972972;28;20531;-71
2021/06/18 17:13:26;;;;;;;16.80;15.60;;;33.20;40.80;;;;;;4973107;28;20451;-71
2021/06/18 17:15:55;;;;;;;15.50;14.70;;;33.00;42.50;;;;;;4972723;28;20455;-71
2021/06/18 17:18:21;;;;;;;18.27;16.57;;;32.70;43.90;;;;;;4972821;28;20844;-71
2021/06/18 17:20:58;;;;;;;17.70;16.30;;;32.60;45.10;;;;;;5170749;27;20293;-71